createdAt,value
2023-03-08T00:02:28.599Z,35.87
2023-03-08T00:05:01.292Z,35.75
2023-03-08T00:07:41.935Z,35.65
2023-03-08T00:10:18.985Z,36.04
2023-03-08T00:12:50.829Z,35.97
2023-03-08T00:15:20.466Z,36.16
2023-03-08T00:18:06.873Z,35.95
2023-03-08T00:20:36.630Z,36.07
2023-03-08T00:23:04.802Z,36.10
2023-03-08T00:25:37.006Z,36.28
2023-03-08T00:28:10.160Z,36.14
2023-03-08T00:30:41.590Z,36.30
2023-03-08T00:33:11.980Z,36.17
2023-03-08T00:36:08.700Z,36.22
2023-03-08T00:38:39.640Z,36.16
2023-03-08T00:41:09.755Z,36.39
2023-03-08T00:43:48.689Z,36.46
2023-03-08T00:46:24.817Z,36.48
2023-03-08T00:48:59.040Z,36.41
2023-03-08T00:51:30.946Z,36.22
2023-03-08T00:54:00.131Z,36.60
2023-03-08T00:56:31.573Z,36.69
2023-03-08T00:59:00.170Z,36.79
2023-03-08T01:01:37.845Z,36.71
2023-03-08T01:04:10.553Z,36.64
2023-03-08T01:06:51.107Z,36.70
2023-03-08T01:09:24.390Z,36.82
2023-03-08T01:12:05.272Z,36.64
2023-03-08T01:14:47.261Z,36.67
2023-03-08T01:17:19.748Z,36.72
2023-03-08T01:20:02.425Z,36.78
2023-03-08T01:22:36.096Z,36.60
2023-03-08T01:25:24.198Z,36.81
2023-03-08T01:28:00.249Z,36.65
2023-03-08T01:30:33.026Z,36.69
2023-03-08T01:33:03.391Z,36.69
2023-03-08T01:35:34.188Z,36.79
2023-03-08T01:38:03.889Z,36.80
2023-03-08T01:40:35.827Z,36.80
2023-03-08T01:43:28.750Z,36.64
2023-03-08T01:46:17.143Z,36.80
2023-03-08T01:49:18.266Z,36.82
2023-03-08T01:52:26.501Z,36.49
2023-03-08T01:55:05.227Z,37.06
2023-03-08T01:57:45.844Z,36.84
2023-03-08T02:00:26.797Z,36.95
2023-03-08T02:03:09.761Z,37.04
2023-03-08T02:05:42.249Z,36.87
2023-03-08T02:08:17.051Z,36.88
2023-03-08T02:10:50.813Z,36.93
2023-03-08T02:13:22.110Z,36.96
2023-03-08T02:15:57.127Z,37.07
2023-03-08T02:18:27.060Z,37.20
2023-03-08T02:20:58.657Z,37.06
2023-03-08T02:23:33.630Z,37.20
2023-03-08T02:26:06.350Z,37.41
2023-03-08T02:28:39.450Z,37.11
2023-03-08T02:31:11.230Z,37.35
2023-03-08T02:33:42.188Z,37.52
2023-03-08T02:36:26.932Z,37.44
2023-03-08T02:39:06.055Z,37.47
2023-03-08T02:41:48.601Z,37.53
2023-03-08T02:44:36.105Z,37.45
2023-03-08T02:47:34.446Z,37.46
2023-03-08T02:50:04.052Z,37.34
2023-03-08T02:52:34.939Z,37.38
2023-03-08T02:55:03.264Z,37.41
2023-03-08T02:57:31.559Z,37.08
2023-03-08T02:59:59.915Z,37.37
2023-03-08T03:02:29.223Z,37.31
2023-03-08T03:05:06.146Z,37.31
2023-03-08T03:07:41.737Z,37.25
2023-03-08T03:10:15.998Z,37.34
2023-03-08T03:12:45.953Z,37.28
2023-03-08T03:15:19.367Z,37.30
2023-03-08T03:17:51.839Z,37.09
2023-03-08T03:20:20.195Z,37.28
2023-03-08T03:22:49.275Z,37.26
2023-03-08T03:25:19.950Z,37.46
2023-03-08T03:27:49.699Z,37.13
2023-03-08T03:30:21.058Z,37.16
2023-03-08T03:32:51.028Z,37.30
2023-03-08T03:35:26.287Z,37.09
2023-03-08T03:37:54.922Z,37.05
2023-03-08T03:40:25.450Z,37.00
2023-03-08T03:42:59.568Z,36.98
2023-03-08T03:45:28.974Z,37.08
2023-03-08T03:47:59.253Z,36.94
2023-03-08T03:50:29.771Z,36.97
2023-03-08T03:53:06.297Z,36.98
2023-03-08T03:55:53.763Z,37.02
2023-03-08T03:58:40.271Z,36.80
2023-03-08T04:01:24.829Z,36.83
2023-03-08T04:03:56.998Z,36.81
2023-03-08T04:06:28.924Z,36.85
2023-03-08T04:09:08.602Z,36.84
2023-03-08T04:11:41.353Z,36.92
2023-03-08T04:14:15.889Z,36.82
2023-03-08T04:16:44.883Z,37.00
2023-03-08T04:19:22.407Z,37.03
2023-03-08T04:21:54.704Z,36.90
2023-03-08T04:24:28.599Z,36.98
2023-03-08T04:27:01.470Z,36.88
2023-03-08T04:29:32.928Z,37.03
2023-03-08T04:32:03.249Z,37.10
2023-03-08T04:34:43.411Z,36.91
2023-03-08T04:37:14.319Z,36.88
2023-03-08T04:39:47.012Z,36.98
2023-03-08T04:42:16.272Z,37.07
2023-03-08T04:44:44.775Z,37.09
2023-03-08T04:47:18.054Z,36.81
2023-03-08T04:49:47.337Z,36.93
2023-03-08T04:52:16.131Z,36.75
2023-03-08T04:54:45.369Z,36.96
2023-03-08T04:57:23.153Z,36.82
2023-03-08T04:59:54.737Z,36.70
2023-03-08T05:02:24.400Z,36.87
2023-03-08T05:04:52.629Z,37.04
2023-03-08T05:07:21.806Z,37.07
2023-03-08T05:09:52.847Z,37.03
2023-03-08T05:12:24.886Z,37.26
2023-03-08T05:14:59.120Z,37.21
2023-03-08T05:17:28.623Z,37.25
2023-03-08T05:19:57.655Z,37.01
2023-03-08T05:22:41.035Z,37.14
2023-03-08T05:25:20.544Z,37.29
2023-03-08T05:27:49.096Z,37.23
2023-03-08T05:30:19.299Z,37.15
2023-03-08T05:32:47.350Z,37.18
2023-03-08T05:35:16.940Z,37.06
2023-03-08T05:37:45.825Z,37.14
2023-03-08T05:40:15.133Z,37.08
2023-03-08T05:42:45.305Z,37.02
2023-03-08T05:45:16.197Z,37.17
2023-03-08T05:47:46.630Z,37.22
2023-03-08T05:50:15.420Z,37.28
2023-03-08T05:52:47.757Z,37.34
2023-03-08T05:55:22.702Z,37.34
2023-03-08T05:57:52.705Z,37.39
2023-03-08T06:00:24.633Z,37.19
2023-03-08T06:02:58.598Z,37.38
2023-03-08T06:05:28.589Z,37.21
2023-03-08T06:07:59.238Z,37.30
2023-03-08T06:10:28.897Z,37.17
2023-03-08T06:12:57.511Z,37.38
2023-03-08T06:15:27.208Z,37.11
2023-03-08T06:17:59.171Z,37.13
2023-03-08T06:20:29.784Z,37.12
2023-03-08T06:22:58.515Z,37.20
2023-03-08T06:25:27.321Z,37.16
2023-03-08T06:27:58.081Z,37.21
2023-03-08T06:30:38.391Z,37.35
2023-03-08T06:33:08.994Z,37.43
2023-03-08T06:35:39.294Z,37.51
2023-03-08T06:38:07.940Z,37.40
2023-03-08T06:40:38.719Z,37.41
2023-03-08T06:43:07.001Z,37.46
2023-03-08T06:45:38.845Z,37.42
2023-03-08T06:48:10.081Z,37.57
2023-03-08T06:50:39.613Z,37.75
2023-03-08T06:53:10.715Z,37.90
2023-03-08T06:55:47.574Z,37.87
2023-03-08T06:58:15.743Z,38.14
2023-03-08T07:00:45.146Z,38.36
2023-03-08T07:03:14.241Z,38.41
2023-03-08T07:05:44.076Z,38.51
2023-03-08T07:08:12.416Z,38.57
2023-03-08T07:10:40.925Z,38.70
2023-03-08T07:13:09.668Z,38.83
2023-03-08T07:15:41.104Z,39.17
2023-03-08T07:18:11.608Z,39.36
2023-03-08T07:20:39.940Z,39.76
2023-03-08T07:23:09.493Z,40.01
2023-03-08T07:25:40.555Z,40.16
2023-03-08T07:28:08.453Z,40.31
2023-03-08T07:30:37.078Z,40.46
2023-03-08T07:33:08.134Z,40.96
2023-03-08T07:35:40.141Z,40.86
2023-03-08T07:38:16.315Z,41.14
2023-03-08T07:40:46.655Z,41.16
2023-03-08T07:43:15.245Z,41.35
2023-03-08T07:46:03.224Z,41.49
2023-03-08T07:48:35.140Z,41.68
2023-03-08T07:51:10.378Z,41.81
2023-03-08T07:53:42.140Z,41.96
2023-03-08T07:56:10.834Z,42.28
2023-03-08T07:58:40.437Z,42.01
2023-03-08T08:01:13.200Z,42.27
2023-03-08T08:03:44.168Z,42.44
2023-03-08T08:06:13.894Z,42.76
2023-03-08T08:08:43.936Z,43.00
2023-03-08T08:11:17.737Z,43.40
2023-03-08T08:13:51.154Z,43.58
2023-03-08T08:16:20.277Z,43.98
2023-03-08T08:18:53.359Z,43.84
2023-03-08T08:21:26.472Z,44.01
2023-03-08T08:23:57.960Z,44.27
2023-03-08T08:26:26.417Z,44.13
2023-03-08T08:28:57.315Z,43.99
2023-03-08T08:31:32.779Z,44.22
2023-03-08T08:34:05.133Z,44.00
2023-03-08T08:36:36.645Z,44.25
2023-03-08T08:39:04.816Z,44.39
2023-03-08T08:41:35.597Z,44.13
2023-03-08T08:44:06.671Z,44.11
2023-03-08T08:46:36.777Z,44.04
2023-03-08T08:49:10.440Z,44.12
2023-03-08T08:51:40.171Z,44.48
2023-03-08T08:54:11.812Z,44.94
2023-03-08T08:56:43.693Z,44.71
2023-03-08T08:59:18.594Z,44.96
2023-03-08T09:01:49.045Z,44.78
2023-03-08T09:04:17.712Z,44.97
2023-03-08T09:06:53.837Z,45.10
2023-03-08T09:09:23.995Z,45.25
2023-03-08T09:11:55.795Z,45.57
2023-03-08T09:14:27.574Z,45.34
2023-03-08T09:17:00.130Z,45.61
2023-03-08T09:19:29.831Z,45.79
2023-03-08T09:22:00.735Z,45.77
2023-03-08T09:24:32.223Z,46.38
2023-03-08T09:27:01.877Z,46.22
2023-03-08T09:29:33.350Z,45.90
2023-03-08T09:32:02.030Z,46.46
2023-03-08T09:34:32.886Z,46.43
2023-03-08T09:37:01.293Z,46.43
2023-03-08T09:39:33.726Z,46.68
2023-03-08T09:42:07.544Z,46.96
2023-03-08T09:44:44.125Z,47.07
2023-03-08T09:47:19.521Z,47.21
2023-03-08T09:49:56.786Z,47.65
2023-03-08T09:52:54.742Z,47.67
2023-03-08T09:55:57.100Z,48.08
2023-03-08T09:59:05.583Z,47.91
2023-03-08T10:02:18.298Z,47.89
2023-03-08T10:05:11.779Z,48.11
2023-03-08T10:07:57.387Z,47.81
2023-03-08T10:11:13.896Z,48.00
2023-03-08T10:13:52.181Z,48.03
2023-03-08T10:16:39.636Z,48.24
2023-03-08T10:19:39.796Z,48.18
2023-03-08T10:22:27.115Z,48.46
2023-03-08T10:25:18.301Z,47.97
2023-03-08T10:27:52.004Z,48.33
2023-03-08T10:30:23.377Z,48.54
2023-03-08T10:33:00.134Z,48.45
2023-03-08T10:36:00.496Z,48.68
2023-03-08T10:38:35.505Z,48.73
2023-03-08T10:41:17.936Z,48.62
2023-03-08T10:43:53.119Z,48.73
2023-03-08T10:46:30.502Z,48.87
2023-03-08T10:49:17.976Z,48.60
2023-03-08T10:51:56.382Z,48.77
2023-03-08T10:54:29.177Z,48.94
2023-03-08T10:57:02.509Z,48.80
2023-03-08T10:59:35.640Z,49.01
2023-03-08T11:02:22.325Z,48.70
2023-03-08T11:05:00.384Z,49.36
2023-03-08T11:07:36.089Z,49.04
2023-03-08T11:10:21.205Z,49.11
2023-03-08T11:13:00.777Z,49.29
2023-03-08T11:15:35.053Z,49.56
2023-03-08T11:18:15.055Z,49.44
2023-03-08T11:20:57.086Z,49.64
2023-03-08T11:24:18.869Z,49.71
2023-03-08T11:27:27.321Z,49.62
2023-03-08T11:30:14.538Z,49.94
2023-03-08T11:33:14.086Z,50.04
2023-03-08T11:36:13.170Z,49.96
2023-03-08T11:38:43.716Z,49.82
2023-03-08T11:41:47.829Z,50.32
2023-03-08T11:45:14.864Z,50.09
2023-03-08T11:48:07.278Z,50.09
2023-03-08T11:51:54.174Z,49.81
2023-03-08T11:55:01.715Z,49.86
2023-03-08T11:57:38.114Z,50.11
2023-03-08T12:00:39.951Z,50.00
2023-03-08T12:03:37.465Z,50.18
2023-03-08T12:06:30.850Z,50.42
2023-03-08T12:09:14.009Z,50.45
2023-03-08T12:12:35.274Z,50.69
2023-03-08T12:15:43.890Z,50.55
2023-03-08T12:18:26.892Z,50.50
2023-03-08T12:21:32.791Z,50.68
2023-03-08T12:24:26.815Z,50.78
2023-03-08T12:27:51.206Z,51.10
2023-03-08T12:30:49.549Z,50.94
2023-03-08T12:33:19.724Z,51.32
2023-03-08T12:36:15.363Z,51.58
2023-03-08T12:38:48.180Z,52.04
2023-03-08T12:41:28.244Z,51.89
2023-03-08T12:44:27.808Z,52.38
2023-03-08T12:47:23.396Z,52.13
2023-03-08T12:49:57.041Z,52.31
2023-03-08T12:52:35.371Z,52.24
2023-03-08T12:55:21.947Z,52.04
2023-03-08T12:57:55.372Z,52.16
2023-03-08T13:00:27.909Z,52.13
2023-03-08T13:03:20.075Z,52.00
2023-03-08T13:05:51.440Z,52.04
2023-03-08T13:08:43.352Z,52.05
2023-03-08T13:11:16.448Z,51.94
2023-03-08T13:14:27.308Z,52.25
2023-03-08T13:16:57.611Z,52.18
2023-03-08T13:19:32.616Z,51.99
2023-03-08T13:22:21.668Z,52.06
2023-03-08T13:25:06.200Z,52.04
2023-03-08T13:28:05.505Z,52.02
2023-03-08T13:30:47.406Z,51.76
2023-03-08T13:33:46.245Z,51.93
2023-03-08T13:36:21.015Z,52.00
2023-03-08T13:39:05.381Z,51.85
2023-03-08T13:41:45.547Z,51.83
2023-03-08T13:44:28.218Z,51.99
2023-03-08T13:47:02.788Z,52.04
2023-03-08T13:49:42.407Z,52.27
2023-03-08T13:52:35.981Z,52.21
2023-03-08T13:55:09.166Z,52.54
2023-03-08T13:57:42.344Z,52.53
2023-03-08T14:00:29.017Z,52.76
2023-03-08T14:03:00.444Z,52.97
2023-03-08T14:05:32.715Z,53.63
2023-03-08T14:08:18.086Z,53.81
2023-03-08T14:11:05.570Z,54.32
2023-03-08T14:13:39.187Z,54.04
2023-03-08T14:16:09.771Z,54.30
2023-03-08T14:18:41.827Z,54.87
2023-03-08T14:21:25.983Z,54.44
2023-03-08T14:24:00.826Z,54.42
2023-03-08T14:26:34.074Z,54.68
2023-03-08T14:29:19.805Z,54.54
2023-03-08T14:32:00.718Z,54.78
2023-03-08T14:34:40.355Z,54.80
2023-03-08T14:37:28.418Z,54.62
2023-03-08T14:40:36.514Z,54.47
2023-03-08T14:43:16.456Z,54.46
2023-03-08T14:45:58.656Z,54.64
2023-03-08T14:48:37.411Z,54.74
2023-03-08T14:51:20.151Z,54.34
2023-03-08T14:54:02.879Z,54.38
2023-03-08T14:56:37.390Z,54.37
2023-03-08T14:59:06.085Z,54.34
2023-03-08T15:01:37.994Z,54.35
2023-03-08T15:04:24.841Z,54.36
2023-03-08T15:06:56.398Z,54.30
2023-03-08T15:09:27.127Z,54.20
2023-03-08T15:11:58.781Z,54.22
2023-03-08T15:14:30.767Z,54.17
2023-03-08T15:16:59.886Z,54.23
2023-03-08T15:19:30.510Z,54.50
2023-03-08T15:22:01.921Z,54.59
2023-03-08T15:24:32.546Z,54.37
2023-03-08T15:27:01.228Z,54.21
2023-03-08T15:29:33.881Z,54.11
2023-03-08T15:32:01.762Z,54.04
2023-03-08T15:34:30.854Z,53.92
2023-03-08T15:37:00.166Z,53.91
2023-03-08T15:39:28.789Z,54.03
2023-03-08T15:41:58.443Z,53.90
2023-03-08T15:44:26.709Z,53.78
2023-03-08T15:46:55.969Z,53.73
2023-03-08T15:49:25.403Z,53.59
2023-03-08T15:51:55.538Z,53.80
2023-03-08T15:54:26.044Z,53.62
2023-03-08T15:57:14.699Z,53.61
2023-03-08T15:59:42.842Z,53.58
2023-03-08T16:02:16.230Z,53.39
2023-03-08T16:04:49.439Z,53.44
2023-03-08T16:07:19.603Z,53.35
2023-03-08T16:09:48.611Z,53.28
2023-03-08T16:12:17.115Z,53.26
2023-03-08T16:14:50.679Z,53.02
2023-03-08T16:17:18.945Z,53.08
2023-03-08T16:19:49.106Z,52.94
2023-03-08T16:22:17.319Z,52.89
2023-03-08T16:24:46.632Z,53.06
2023-03-08T16:27:15.686Z,53.06
2023-03-08T16:29:49.858Z,52.95
2023-03-08T16:32:20.723Z,52.83
2023-03-08T16:34:51.301Z,52.94
2023-03-08T16:37:21.536Z,52.80
2023-03-08T16:39:50.551Z,52.88
2023-03-08T16:42:20.747Z,52.78
2023-03-08T16:44:54.511Z,52.60
2023-03-08T16:47:24.758Z,52.61
2023-03-08T16:49:54.114Z,52.57
2023-03-08T16:52:22.607Z,52.41
2023-03-08T16:54:52.341Z,52.86
2023-03-08T16:57:22.064Z,52.59
2023-03-08T16:59:50.446Z,52.63
2023-03-08T17:02:22.054Z,52.53
2023-03-08T17:04:52.906Z,52.51
2023-03-08T17:07:22.782Z,52.43
2023-03-08T17:09:51.720Z,52.33
2023-03-08T17:12:22.188Z,52.30
2023-03-08T17:14:50.995Z,52.21
2023-03-08T17:17:19.807Z,52.23
2023-03-08T17:19:55.905Z,52.25
2023-03-08T17:22:25.037Z,52.19
2023-03-08T17:24:54.764Z,52.32
2023-03-08T17:27:45.115Z,51.98
2023-03-08T17:30:16.507Z,52.26
2023-03-08T17:32:46.812Z,52.22
2023-03-08T17:35:15.652Z,52.29
2023-03-08T17:37:44.680Z,52.34
2023-03-08T17:40:17.512Z,52.53
2023-03-08T17:42:48.641Z,52.54
2023-03-08T17:45:18.994Z,52.55
2023-03-08T17:47:49.005Z,52.49
2023-03-08T17:50:19.594Z,52.75
2023-03-08T17:52:50.274Z,52.66
2023-03-08T17:55:20.405Z,52.62
2023-03-08T17:57:50.246Z,52.67
2023-03-08T18:00:19.760Z,52.57
2023-03-08T18:02:50.654Z,52.28
2023-03-08T18:05:19.343Z,52.13
2023-03-08T18:07:47.982Z,52.04
2023-03-08T18:10:18.719Z,52.13
2023-03-08T18:12:47.588Z,52.15
2023-03-08T18:15:17.572Z,52.30
2023-03-08T18:17:48.253Z,52.41
2023-03-08T18:20:18.779Z,52.44
2023-03-08T18:22:53.812Z,52.74
2023-03-08T18:25:22.428Z,52.75
2023-03-08T18:27:54.381Z,53.11
2023-03-08T18:30:25.147Z,53.08
2023-03-08T18:32:55.796Z,53.12
2023-03-08T18:35:24.344Z,53.26
2023-03-08T18:37:52.432Z,53.33
2023-03-08T18:40:23.543Z,53.73
2023-03-08T18:42:54.662Z,53.71
2023-03-08T18:45:24.628Z,53.85
2023-03-08T18:47:53.083Z,53.81
2023-03-08T18:50:24.006Z,53.91
2023-03-08T18:52:53.610Z,54.38
2023-03-08T18:55:22.056Z,54.07
2023-03-08T18:57:51.609Z,54.41
2023-03-08T19:00:20.110Z,54.58
2023-03-08T19:02:48.720Z,54.71
2023-03-08T19:05:17.840Z,54.53
2023-03-08T19:07:47.740Z,54.77
2023-03-08T19:10:16.492Z,54.94
2023-03-08T19:12:46.924Z,55.07
2023-03-08T19:15:16.429Z,55.15
2023-03-08T19:17:44.843Z,55.10
2023-03-08T19:20:13.664Z,55.26
2023-03-08T19:22:48.232Z,55.41
2023-03-08T19:25:20.701Z,55.35
2023-03-08T19:27:51.262Z,55.58
2023-03-08T19:30:22.698Z,56.21
2023-03-08T19:32:51.720Z,55.94
2023-03-08T19:35:23.430Z,55.98
2023-03-08T19:37:53.398Z,56.13
2023-03-08T19:40:23.531Z,56.65
2023-03-08T19:42:54.792Z,56.53
2023-03-08T19:45:26.947Z,56.84
2023-03-08T19:47:56.561Z,57.27
2023-03-08T19:50:26.222Z,57.17
2023-03-08T19:52:54.550Z,57.10
2023-03-08T19:55:25.333Z,57.37
2023-03-08T19:57:54.696Z,57.64
2023-03-08T20:00:25.458Z,57.54
2023-03-08T20:02:54.677Z,57.89
2023-03-08T20:05:23.281Z,57.93
2023-03-08T20:07:53.715Z,57.99
2023-03-08T20:10:25.843Z,57.64
2023-03-08T20:12:57.886Z,57.91
2023-03-08T20:15:31.352Z,57.77
2023-03-08T20:17:59.579Z,57.58
2023-03-08T20:20:33.194Z,57.46
2023-03-08T20:23:10.394Z,57.26
2023-03-08T20:25:45.448Z,57.24
2023-03-08T20:28:24.771Z,57.16
2023-03-08T20:30:56.097Z,56.94
2023-03-08T20:33:32.731Z,57.06
2023-03-08T20:36:02.108Z,56.81
2023-03-08T20:38:35.614Z,57.05
2023-03-08T20:41:16.359Z,57.08
2023-03-08T20:43:56.269Z,57.30
2023-03-08T20:46:33.744Z,57.33
2023-03-08T20:49:12.833Z,57.26
2023-03-08T20:51:43.023Z,57.35
2023-03-08T20:54:14.530Z,57.25
2023-03-08T20:56:51.527Z,57.28
2023-03-08T20:59:38.350Z,57.34
2023-03-08T21:02:19.366Z,57.37
2023-03-08T21:04:58.327Z,57.38
2023-03-08T21:07:35.789Z,57.36
2023-03-08T21:10:09.256Z,57.41
2023-03-08T21:12:40.498Z,57.46
2023-03-08T21:15:14.773Z,57.49
2023-03-08T21:18:10.678Z,57.47
2023-03-08T21:20:39.646Z,57.55
2023-03-08T21:23:08.770Z,57.67
2023-03-08T21:25:37.622Z,57.69
2023-03-08T21:28:17.642Z,57.47
2023-03-08T21:30:49.810Z,57.65
2023-03-08T21:33:37.639Z,57.69
2023-03-08T21:36:14.099Z,57.59
2023-03-08T21:38:58.194Z,57.71
2023-03-08T21:41:38.731Z,57.70
2023-03-08T21:44:24.859Z,57.94
2023-03-08T21:47:12.286Z,57.87
2023-03-08T21:50:13.199Z,58.17
2023-03-08T21:52:58.843Z,57.94
2023-03-08T21:56:17.204Z,58.15
2023-03-08T21:58:51.235Z,58.01
2023-03-08T22:01:27.530Z,57.97
2023-03-08T22:03:57.108Z,58.10
2023-03-08T22:06:37.775Z,57.90
2023-03-08T22:09:18.570Z,57.78
2023-03-08T22:11:54.462Z,57.79
2023-03-08T22:14:27.053Z,57.58
2023-03-08T22:16:57.816Z,57.88
2023-03-08T22:19:53.922Z,57.92
2023-03-08T22:22:22.364Z,58.36
2023-03-08T22:24:53.970Z,58.03
2023-03-08T22:27:23.932Z,58.12
2023-03-08T22:29:57.004Z,58.17
2023-03-08T22:32:36.540Z,58.34
2023-03-08T22:35:14.976Z,58.38
2023-03-08T22:37:47.621Z,58.67
2023-03-08T22:40:24.759Z,58.63
2023-03-08T22:43:27.957Z,59.05
2023-03-08T22:45:57.914Z,59.04
2023-03-08T22:48:41.421Z,58.88
2023-03-08T22:51:29.103Z,58.90
2023-03-08T22:54:03.658Z,58.99
2023-03-08T22:56:35.494Z,59.25
2023-03-08T22:59:06.132Z,59.06
2023-03-08T23:01:39.466Z,59.24
2023-03-08T23:04:19.052Z,58.89
2023-03-08T23:07:10.804Z,59.01
2023-03-08T23:10:04.888Z,58.83
2023-03-08T23:12:38.351Z,58.85
2023-03-08T23:15:12.147Z,59.07
2023-03-08T23:17:44.838Z,58.84
2023-03-08T23:20:36.856Z,58.90
2023-03-08T23:23:26.931Z,58.99
2023-03-08T23:29:35.524Z,58.78
2023-03-08T23:32:25.883Z,58.94
2023-03-08T23:35:01.799Z,59.09
2023-03-08T23:37:30.118Z,58.95
2023-03-08T23:39:58.326Z,59.04
2023-03-08T23:42:40.244Z,59.11
2023-03-08T23:45:11.088Z,59.41
2023-03-08T23:47:46.314Z,59.32
2023-03-08T23:50:48.641Z,59.42
2023-03-08T23:53:17.352Z,59.68
2023-03-08T23:55:53.196Z,59.60
2023-03-08T23:58:24.083Z,59.97
